sensor_id;sensor_type;location;lat;lon;timestamp;pressure;altitude;pressure_sealevel;temperature;humidity
65175;BME280;51761;42.126;24.752;2023-03-25T00:02:24;99396.31;;;10.35;69.58
65175;BME280;51761;42.126;24.752;2023-03-25T00:04:52;99395.16;;;10.33;69.32
65175;BME280;51761;42.126;24.752;2023-03-25T00:07:21;99376.16;;;10.24;68.99
65175;BME280;51761;42.126;24.752;2023-03-25T00:09:47;99367.63;;;10.12;69.87
65175;BME280;51761;42.126;24.752;2023-03-25T00:12:14;99388.13;;;10.25;69.61
65175;BME280;51761;42.126;24.752;2023-03-25T00:14:41;99391.38;;;10.20;69.74
65175;BME280;51761;42.126;24.752;2023-03-25T00:17:07;99385.81;;;10.20;69.88
65175;BME280;51761;42.126;24.752;2023-03-25T00:19:34;99376.44;;;10.10;70.11
65175;BME280;51761;42.126;24.752;2023-03-25T00:22:00;99385.81;;;10.20;70.35
65175;BME280;51761;42.126;24.752;2023-03-25T00:24:26;99387.03;;;10.19;70.11
65175;BME280;51761;42.126;24.752;2023-03-25T00:26:51;99389.00;;;10.22;69.89
65175;BME280;51761;42.126;24.752;2023-03-25T00:29:18;99385.69;;;10.27;69.58
65175;BME280;51761;42.126;24.752;2023-03-25T00:31:45;99388.00;;;10.32;69.83
65175;BME280;51761;42.126;24.752;2023-03-25T00:34:11;99377.44;;;10.20;70.30
65175;BME280;51761;42.126;24.752;2023-03-25T00:36:39;99387.03;;;10.19;70.46
65175;BME280;51761;42.126;24.752;2023-03-25T00:39:06;99375.41;;;10.24;70.75
65175;BME280;51761;42.126;24.752;2023-03-25T00:41:32;99375.63;;;10.33;70.63
65175;BME280;51761;42.126;24.752;2023-03-25T00:44:00;99366.16;;;10.27;71.19
65175;BME280;51761;42.126;24.752;2023-03-25T00:46:28;99345.31;;;10.12;71.12
65175;BME280;51761;42.126;24.752;2023-03-25T00:48:55;99345.56;;;10.21;71.43
65175;BME280;51761;42.126;24.752;2023-03-25T00:51:22;99342.16;;;10.10;71.43
65175;BME280;51761;42.126;24.752;2023-03-25T00:53:53;99359.59;;;10.37;70.95
65175;BME280;51761;42.126;24.752;2023-03-25T00:56:20;99362.66;;;10.23;71.86
65175;BME280;51761;42.126;24.752;2023-03-25T00:58:45;99359.72;;;10.30;71.18
65175;BME280;51761;42.126;24.752;2023-03-25T01:01:13;99362.56;;;10.26;72.16
65175;BME280;51761;42.126;24.752;2023-03-25T01:03:41;99364.78;;;10.15;72.54
65175;BME280;51761;42.126;24.752;2023-03-25T01:06:11;99359.91;;;10.19;72.17
65175;BME280;51761;42.126;24.752;2023-03-25T01:08:37;99360.69;;;10.20;72.31
65175;BME280;51761;42.126;24.752;2023-03-25T01:11:04;99335.59;;;9.97;72.95
65175;BME280;51761;42.126;24.752;2023-03-25T01:13:30;99358.13;;;10.09;72.96
65175;BME280;51761;42.126;24.752;2023-03-25T01:15:56;99354.75;;;9.95;73.95
65175;BME280;51761;42.126;24.752;2023-03-25T01:18:21;99347.66;;;9.90;74.23
65175;BME280;51761;42.126;24.752;2023-03-25T01:20:47;99320.50;;;9.71;74.38
65175;BME280;51761;42.126;24.752;2023-03-25T01:23:12;99343.16;;;9.96;74.54
65175;BME280;51761;42.126;24.752;2023-03-25T01:25:38;99342.97;;;9.84;74.76
65175;BME280;51761;42.126;24.752;2023-03-25T01:28:04;99350.44;;;9.90;75.16
65175;BME280;51761;42.126;24.752;2023-03-25T01:30:30;99322.06;;;9.72;74.89
65175;BME280;51761;42.126;24.752;2023-03-25T01:32:56;99320.44;;;9.75;74.29
65175;BME280;51761;42.126;24.752;2023-03-25T01:35:22;99338.84;;;9.92;73.88
65175;BME280;51761;42.126;24.752;2023-03-25T01:37:47;99338.03;;;9.95;73.76
65175;BME280;51761;42.126;24.752;2023-03-25T01:40:18;99326.56;;;9.89;74.21
65175;BME280;51761;42.126;24.752;2023-03-25T01:42:44;99317.84;;;9.87;74.52
65175;BME280;51761;42.126;24.752;2023-03-25T01:45:29;99328.81;;;9.98;73.28
65175;BME280;51761;42.126;24.752;2023-03-25T01:48:08;99318.13;;;9.93;74.08
65175;BME280;51761;42.126;24.752;2023-03-25T01:50:41;99316.63;;;9.88;74.30
65175;BME280;51761;42.126;24.752;2023-03-25T01:53:09;99296.91;;;9.76;74.46
65175;BME280;51761;42.126;24.752;2023-03-25T01:55:36;99311.63;;;9.76;74.71
65175;BME280;51761;42.126;24.752;2023-03-25T01:58:06;99303.34;;;9.73;74.98
65175;BME280;51761;42.126;24.752;2023-03-25T02:00:37;99298.91;;;9.75;75.01
65175;BME280;51761;42.126;24.752;2023-03-25T02:03:05;99278.00;;;9.64;74.57
65175;BME280;51761;42.126;24.752;2023-03-25T02:05:47;99298.91;;;9.75;74.94
65175;BME280;51761;42.126;24.752;2023-03-25T02:08:17;99292.31;;;9.66;75.61
65175;BME280;51761;42.126;24.752;2023-03-25T02:10:46;99289.91;;;9.68;75.41
65175;BME280;51761;42.126;24.752;2023-03-25T02:13:13;99286.06;;;9.58;75.62
65175;BME280;51761;42.126;24.752;2023-03-25T02:35:19;99280.56;;;9.55;75.61
65175;BME280;51761;42.126;24.752;2023-03-25T02:38:23;99254.59;;;9.35;75.35
65175;BME280;51761;42.126;24.752;2023-03-25T02:46:20;99278.66;;;9.48;75.42
65175;BME280;51761;42.126;24.752;2023-03-25T02:51:21;99258.16;;;9.39;75.56
65175;BME280;51761;42.126;24.752;2023-03-25T02:53:49;99269.16;;;9.46;75.86
65175;BME280;51761;42.126;24.752;2023-03-25T02:56:18;99269.56;;;9.44;75.64
65175;BME280;51761;42.126;24.752;2023-03-25T02:58:48;99245.28;;;9.22;75.93
65175;BME280;51761;42.126;24.752;2023-03-25T03:01:16;99273.75;;;9.33;76.19
65175;BME280;51761;42.126;24.752;2023-03-25T03:03:41;99251.16;;;9.28;76.27
65175;BME280;51761;42.126;24.752;2023-03-25T03:06:07;99255.09;;;9.30;75.88
65175;BME280;51761;42.126;24.752;2023-03-25T03:24:31;99226.75;;;9.12;76.02
65175;BME280;51761;42.126;24.752;2023-03-25T03:32:12;99219.03;;;8.97;76.20
65175;BME280;51761;42.126;24.752;2023-03-25T03:37:41;99245.13;;;9.06;75.96
65175;BME280;51761;42.126;24.752;2023-03-25T03:40:14;99236.47;;;9.01;76.27
65175;BME280;51761;42.126;24.752;2023-03-25T03:42:44;99234.94;;;8.96;76.31
65175;BME280;51761;42.126;24.752;2023-03-25T03:45:16;99234.19;;;8.96;76.53
65175;BME280;51761;42.126;24.752;2023-03-25T03:47:47;99243.56;;;8.79;76.80
65175;BME280;51761;42.126;24.752;2023-03-25T03:50:19;99244.88;;;8.71;76.76
65175;BME280;51761;42.126;24.752;2023-03-25T03:52:50;99247.34;;;8.65;76.95
65175;BME280;51761;42.126;24.752;2023-03-25T03:55:37;99244.97;;;8.64;77.13
65175;BME280;51761;42.126;24.752;2023-03-25T03:58:09;99222.69;;;8.37;77.33
65175;BME280;51761;42.126;24.752;2023-03-25T04:00:47;99241.59;;;8.49;77.72
65175;BME280;51761;42.126;24.752;2023-03-25T04:03:19;99219.88;;;8.41;76.95
65175;BME280;51761;42.126;24.752;2023-03-25T04:05:53;99222.34;;;8.32;77.07
65175;BME280;51761;42.126;24.752;2023-03-25T04:08:37;99247.56;;;8.51;77.00
65175;BME280;51761;42.126;24.752;2023-03-25T04:11:10;99242.16;;;8.37;77.09
65175;BME280;51761;42.126;24.752;2023-03-25T04:13:43;99248.13;;;8.36;77.30
65175;BME280;51761;42.126;24.752;2023-03-25T04:16:11;99238.91;;;8.42;77.25
65175;BME280;51761;42.126;24.752;2023-03-25T04:18:37;99228.03;;;8.21;77.35
65175;BME280;51761;42.126;24.752;2023-03-25T04:21:04;99251.63;;;8.43;77.21
65175;BME280;51761;42.126;24.752;2023-03-25T04:23:29;99242.53;;;8.39;77.18
65175;BME280;51761;42.126;24.752;2023-03-25T04:25:56;99240.25;;;8.31;77.17
65175;BME280;51761;42.126;24.752;2023-03-25T04:28:22;99256.31;;;8.50;77.09
65175;BME280;51761;42.126;24.752;2023-03-25T04:30:50;99251.63;;;8.43;76.85
65175;BME280;51761;42.126;24.752;2023-03-25T04:33:23;99258.94;;;8.60;76.40
65175;BME280;51761;42.126;24.752;2023-03-25T04:35:50;99251.38;;;8.61;76.59
65175;BME280;51761;42.126;24.752;2023-03-25T04:38:17;99240.31;;;8.57;76.75
65175;BME280;51761;42.126;24.752;2023-03-25T04:40:43;99246.94;;;8.67;76.46
65175;BME280;51761;42.126;24.752;2023-03-25T04:43:14;99258.94;;;8.60;76.97
65175;BME280;51761;42.126;24.752;2023-03-25T04:45:40;99237.56;;;8.54;76.82
65175;BME280;51761;42.126;24.752;2023-03-25T04:48:21;99244.19;;;8.63;76.29
65175;BME280;51761;42.126;24.752;2023-03-25T04:50:47;99259.94;;;8.73;76.59
65175;BME280;51761;42.126;24.752;2023-03-25T04:53:16;99260.75;;;8.74;76.63
65175;BME280;51761;42.126;24.752;2023-03-25T04:55:41;99272.03;;;8.90;76.39
65175;BME280;51761;42.126;24.752;2023-03-25T04:58:13;99263.16;;;8.98;75.81
65175;BME280;51761;42.126;24.752;2023-03-25T05:00:40;99248.03;;;8.73;76.81
65175;BME280;51761;42.126;24.752;2023-03-25T05:03:08;99262.06;;;8.92;76.37
65175;BME280;51761;42.126;24.752;2023-03-25T05:05:36;99245.84;;;8.87;76.66
65175;BME280;51761;42.126;24.752;2023-03-25T05:08:02;99259.16;;;8.99;76.82
65175;BME280;51761;42.126;24.752;2023-03-25T05:10:28;99232.91;;;9.00;76.35
65175;BME280;51761;42.126;24.752;2023-03-25T05:13:03;99258.47;;;9.18;76.23
65175;BME280;51761;42.126;24.752;2023-03-25T05:15:30;99242.84;;;9.24;74.60
65175;BME280;51761;42.126;24.752;2023-03-25T05:17:57;99253.50;;;9.29;74.54
65175;BME280;51761;42.126;24.752;2023-03-25T05:20:23;99230.72;;;9.34;74.50
65175;BME280;51761;42.126;24.752;2023-03-25T05:22:49;99253.84;;;9.57;73.86
65175;BME280;51761;42.126;24.752;2023-03-25T05:25:17;99223.84;;;9.65;72.51
65175;BME280;51761;42.126;24.752;2023-03-25T05:27:46;99257.19;;;9.91;72.16
65175;BME280;51761;42.126;24.752;2023-03-25T05:30:12;99253.38;;;10.05;72.32
65175;BME280;51761;42.126;24.752;2023-03-25T05:32:38;99253.00;;;10.03;72.24
65175;BME280;51761;42.126;24.752;2023-03-25T05:35:06;99254.19;;;10.25;71.34
65175;BME280;51761;42.126;24.752;2023-03-25T05:37:31;99258.88;;;10.47;70.05
65175;BME280;51761;42.126;24.752;2023-03-25T05:39:57;99256.53;;;10.81;68.37
65175;BME280;51761;42.126;24.752;2023-03-25T05:42:23;99240.34;;;11.40;66.48
65175;BME280;51761;42.126;24.752;2023-03-25T05:44:50;99254.78;;;12.56;62.68
65175;BME280;51761;42.126;24.752;2023-03-25T05:47:23;99249.69;;;13.88;57.87
65175;BME280;51761;42.126;24.752;2023-03-25T05:49:50;99252.00;;;14.78;54.71
65175;BME280;51761;42.126;24.752;2023-03-25T05:52:17;99254.00;;;15.39;52.15
65175;BME280;51761;42.126;24.752;2023-03-25T05:54:44;99252.41;;;16.13;49.63
65175;BME280;51761;42.126;24.752;2023-03-25T05:57:12;99239.78;;;16.35;48.27
65175;BME280;51761;42.126;24.752;2023-03-25T05:59:38;99234.84;;;16.81;46.85
65175;BME280;51761;42.126;24.752;2023-03-25T06:02:12;99264.88;;;17.52;45.98
65175;BME280;51761;42.126;24.752;2023-03-25T06:04:38;99238.84;;;18.56;42.97
65175;BME280;51761;42.126;24.752;2023-03-25T06:07:06;99250.94;;;18.86;41.84
65175;BME280;51761;42.126;24.752;2023-03-25T06:09:50;99258.97;;;19.99;39.59
65175;BME280;51761;42.126;24.752;2023-03-25T06:12:18;99261.81;;;20.39;38.64
65175;BME280;51761;42.126;24.752;2023-03-25T06:14:45;99243.50;;;19.80;39.50
65175;BME280;51761;42.126;24.752;2023-03-25T06:17:15;99262.50;;;19.94;39.29
65175;BME280;51761;42.126;24.752;2023-03-25T06:19:43;99264.09;;;20.15;38.41
65175;BME280;51761;42.126;24.752;2023-03-25T06:22:10;99250.25;;;19.48;40.15
65175;BME280;51761;42.126;24.752;2023-03-25T06:24:36;99262.88;;;20.02;39.57
65175;BME280;51761;42.126;24.752;2023-03-25T06:27:08;99261.38;;;19.86;39.24
65175;BME280;51761;42.126;24.752;2023-03-25T06:29:36;99262.34;;;20.18;39.02
65175;BME280;51761;42.126;24.752;2023-03-25T06:32:03;99255.00;;;20.51;39.49
65175;BME280;51761;42.126;24.752;2023-03-25T06:34:29;99255.53;;;20.55;39.01
65175;BME280;51761;42.126;24.752;2023-03-25T06:36:57;99258.06;;;20.73;38.58
65175;BME280;51761;42.126;24.752;2023-03-25T06:39:22;99261.00;;;21.66;36.64
65175;BME280;51761;42.126;24.752;2023-03-25T06:41:48;99261.78;;;21.04;37.82
65175;BME280;51761;42.126;24.752;2023-03-25T06:44:13;99245.09;;;20.87;37.55
65175;BME280;51761;42.126;24.752;2023-03-25T06:46:39;99261.69;;;21.55;37.21
65175;BME280;51761;42.126;24.752;2023-03-25T06:49:04;99236.25;;;21.41;36.64
65175;BME280;51761;42.126;24.752;2023-03-25T06:51:30;99240.66;;;21.78;35.84
65175;BME280;51761;42.126;24.752;2023-03-25T06:53:56;99245.72;;;22.00;35.27
65175;BME280;51761;42.126;24.752;2023-03-25T06:56:21;99235.41;;;22.08;34.41
65175;BME280;51761;42.126;24.752;2023-03-25T06:58:47;99260.22;;;22.02;34.90
65175;BME280;51761;42.126;24.752;2023-03-25T07:01:12;99259.75;;;22.14;35.63
65175;BME280;51761;42.126;24.752;2023-03-25T07:03:37;99255.28;;;22.02;34.93
65175;BME280;51761;42.126;24.752;2023-03-25T07:06:07;99251.19;;;22.09;35.86
65175;BME280;51761;42.126;24.752;2023-03-25T07:08:33;99240.03;;;22.05;35.67
65175;BME280;51761;42.126;24.752;2023-03-25T07:11:06;99252.66;;;22.46;35.06
65175;BME280;51761;42.126;24.752;2023-03-25T07:13:32;99254.13;;;22.31;35.47
65175;BME280;51761;42.126;24.752;2023-03-25T07:15:58;99253.84;;;22.23;35.36
65175;BME280;51761;42.126;24.752;2023-03-25T07:18:24;99248.00;;;22.49;34.85
65175;BME280;51761;42.126;24.752;2023-03-25T07:20:50;99254.78;;;22.67;33.95
65175;BME280;51761;42.126;24.752;2023-03-25T07:23:16;99244.50;;;22.86;33.79
65175;BME280;51761;42.126;24.752;2023-03-25T07:25:41;99247.78;;;22.52;34.74
65175;BME280;51761;42.126;24.752;2023-03-25T07:28:07;99250.13;;;22.64;35.73
65175;BME280;51761;42.126;24.752;2023-03-25T07:30:32;99232.03;;;22.78;35.15
65175;BME280;51761;42.126;24.752;2023-03-25T07:32:58;99242.84;;;22.47;35.06
65175;BME280;51761;42.126;24.752;2023-03-25T07:35:23;99233.22;;;22.39;35.32
65175;BME280;51761;42.126;24.752;2023-03-25T07:37:49;99242.94;;;23.07;34.06
65175;BME280;51761;42.126;24.752;2023-03-25T07:40:14;99239.63;;;23.42;33.24
65175;BME280;51761;42.126;24.752;2023-03-25T07:42:40;99240.09;;;23.73;33.39
65175;BME280;51761;42.126;24.752;2023-03-25T07:45:06;99240.91;;;23.46;32.96
65175;BME280;51761;42.126;24.752;2023-03-25T07:47:31;99231.25;;;23.77;34.59
65175;BME280;51761;42.126;24.752;2023-03-25T07:49:57;99222.94;;;24.01;33.00
65175;BME280;51761;42.126;24.752;2023-03-25T07:52:22;99206.47;;;24.28;32.74
65175;BME280;51761;42.126;24.752;2023-03-25T07:54:48;99232.97;;;24.29;31.85
65175;BME280;51761;42.126;24.752;2023-03-25T07:57:13;99199.44;;;23.62;33.42
65175;BME280;51761;42.126;24.752;2023-03-25T07:59:39;99218.06;;;23.79;33.06
65175;BME280;51761;42.126;24.752;2023-03-25T08:02:05;99206.66;;;23.74;33.69
65175;BME280;51761;42.126;24.752;2023-03-25T08:04:31;99219.84;;;23.93;33.79
65175;BME280;51761;42.126;24.752;2023-03-25T08:06:56;99190.03;;;23.94;32.15
65175;BME280;51761;42.126;24.752;2023-03-25T08:09:22;99220.75;;;24.28;32.17
65175;BME280;51761;42.126;24.752;2023-03-25T08:11:48;99212.34;;;24.58;32.60
65175;BME280;51761;42.126;24.752;2023-03-25T08:14:15;99212.41;;;24.36;33.25
65175;BME280;51761;42.126;24.752;2023-03-25T08:16:41;99205.00;;;24.68;32.38
65175;BME280;51761;42.126;24.752;2023-03-25T08:19:06;99193.50;;;24.79;31.19
65175;BME280;51761;42.126;24.752;2023-03-25T08:21:32;99175.94;;;24.64;30.47
65175;BME280;51761;42.126;24.752;2023-03-25T08:23:57;99200.53;;;25.13;31.51
65175;BME280;51761;42.126;24.752;2023-03-25T08:26:27;99182.72;;;24.61;30.79
65175;BME280;51761;42.126;24.752;2023-03-25T08:28:54;99190.00;;;24.62;32.36
65175;BME280;51761;42.126;24.752;2023-03-25T08:31:22;99193.31;;;25.06;31.22
65175;BME280;51761;42.126;24.752;2023-03-25T08:33:48;99202.06;;;25.14;29.75
65175;BME280;51761;42.126;24.752;2023-03-25T08:36:13;99189.50;;;24.47;29.99
65175;BME280;51761;42.126;24.752;2023-03-25T08:38:45;99192.88;;;24.56;31.29
65175;BME280;51761;42.126;24.752;2023-03-25T08:41:11;99207.47;;;24.42;31.49
65175;BME280;51761;42.126;24.752;2023-03-25T08:43:37;99180.94;;;24.47;31.11
65175;BME280;51761;42.126;24.752;2023-03-25T08:46:03;99187.19;;;24.51;32.30
65175;BME280;51761;42.126;24.752;2023-03-25T08:48:28;99161.13;;;24.20;31.58
65175;BME280;51761;42.126;24.752;2023-03-25T08:50:54;99188.78;;;24.41;31.54
65175;BME280;51761;42.126;24.752;2023-03-25T08:53:19;99181.50;;;24.45;31.12
65175;BME280;51761;42.126;24.752;2023-03-25T08:55:45;99145.25;;;24.24;31.76
65175;BME280;51761;42.126;24.752;2023-03-25T08:58:11;99175.75;;;24.51;31.14
65175;BME280;51761;42.126;24.752;2023-03-25T09:00:36;99174.56;;;24.30;32.51
65175;BME280;51761;42.126;24.752;2023-03-25T09:03:03;99147.13;;;24.22;32.13
65175;BME280;51761;42.126;24.752;2023-03-25T09:05:29;99162.38;;;24.29;31.65
65175;BME280;51761;42.126;24.752;2023-03-25T09:07:55;99156.88;;;24.37;30.29
65175;BME280;51761;42.126;24.752;2023-03-25T09:10:20;99141.28;;;24.43;30.23
65175;BME280;51761;42.126;24.752;2023-03-25T09:12:46;99140.72;;;24.56;30.57
65175;BME280;51761;42.126;24.752;2023-03-25T09:15:11;99144.38;;;24.86;31.15
65175;BME280;51761;42.126;24.752;2023-03-25T09:17:38;99119.19;;;24.84;31.98
65175;BME280;51761;42.126;24.752;2023-03-25T09:20:05;99113.75;;;24.81;30.10
65175;BME280;51761;42.126;24.752;2023-03-25T09:22:34;99123.03;;;25.22;29.32
65175;BME280;51761;42.126;24.752;2023-03-25T09:25:00;99095.44;;;25.00;30.71
65175;BME280;51761;42.126;24.752;2023-03-25T09:27:25;99114.16;;;24.96;29.53
65175;BME280;51761;42.126;24.752;2023-03-25T09:29:50;99108.72;;;24.92;31.52
65175;BME280;51761;42.126;24.752;2023-03-25T09:32:16;99120.47;;;24.89;31.13
65175;BME280;51761;42.126;24.752;2023-03-25T09:34:43;99110.72;;;25.32;31.06
65175;BME280;51761;42.126;24.752;2023-03-25T09:37:09;99116.22;;;25.54;30.12
65175;BME280;51761;42.126;24.752;2023-03-25T09:39:34;99107.66;;;25.73;30.52
65175;BME280;51761;42.126;24.752;2023-03-25T09:42:20;99111.75;;;26.01;30.81
65175;BME280;51761;42.126;24.752;2023-03-25T09:47:29;99106.00;;;25.35;30.16
65175;BME280;51761;42.126;24.752;2023-03-25T09:50:02;99103.75;;;24.98;33.21
65175;BME280;51761;42.126;24.752;2023-03-25T09:52:35;99080.53;;;25.07;30.64
65175;BME280;51761;42.126;24.752;2023-03-25T09:55:08;99066.63;;;24.98;30.67
65175;BME280;51761;42.126;24.752;2023-03-25T09:57:46;99091.81;;;24.94;31.20
65175;BME280;51761;42.126;24.752;2023-03-25T10:00:18;99080.13;;;24.98;31.67
65175;BME280;51761;42.126;24.752;2023-03-25T10:02:47;99066.31;;;25.31;30.10
65175;BME280;51761;42.126;24.752;2023-03-25T10:08:32;99054.69;;;25.90;29.50
65175;BME280;51761;42.126;24.752;2023-03-25T10:11:05;99059.16;;;26.04;30.47
65175;BME280;51761;42.126;24.752;2023-03-25T10:14:20;99043.53;;;26.23;30.11
65175;BME280;51761;42.126;24.752;2023-03-25T10:22:16;99032.03;;;26.73;29.54
65175;BME280;51761;42.126;24.752;2023-03-25T10:24:50;99012.03;;;26.99;30.06
65175;BME280;51761;42.126;24.752;2023-03-25T10:27:22;99011.25;;;26.86;30.31
65175;BME280;51761;42.126;24.752;2023-03-25T10:32:51;98996.38;;;27.00;29.34
65175;BME280;51761;42.126;24.752;2023-03-25T10:35:25;98989.44;;;26.83;28.68
65175;BME280;51761;42.126;24.752;2023-03-25T10:37:53;98985.38;;;26.47;29.20
65175;BME280;51761;42.126;24.752;2023-03-25T10:40:29;98991.13;;;26.60;29.90
65175;BME280;51761;42.126;24.752;2023-03-25T10:43:35;98983.25;;;26.79;29.93
65175;BME280;51761;42.126;24.752;2023-03-25T10:48:50;98962.31;;;26.71;29.30
65175;BME280;51761;42.126;24.752;2023-03-25T10:51:18;98961.44;;;27.02;29.83
65175;BME280;51761;42.126;24.752;2023-03-25T10:53:49;98965.53;;;27.45;28.21
65175;BME280;51761;42.126;24.752;2023-03-25T10:56:33;98962.31;;;27.49;27.87
65175;BME280;51761;42.126;24.752;2023-03-25T10:59:05;98959.44;;;27.62;28.05
65175;BME280;51761;42.126;24.752;2023-03-25T11:01:37;98959.66;;;27.63;27.50
65175;BME280;51761;42.126;24.752;2023-03-25T11:04:16;98953.28;;;27.58;28.28
65175;BME280;51761;42.126;24.752;2023-03-25T11:06:47;98953.38;;;27.65;28.61
65175;BME280;51761;42.126;24.752;2023-03-25T11:09:21;98954.47;;;27.62;27.60
65175;BME280;51761;42.126;24.752;2023-03-25T11:11:48;98939.81;;;27.53;29.36
65175;BME280;51761;42.126;24.752;2023-03-25T11:14:13;98942.94;;;27.29;29.46
65175;BME280;51761;42.126;24.752;2023-03-25T11:16:50;98920.22;;;27.18;29.93
65175;BME280;51761;42.126;24.752;2023-03-25T11:19:24;98928.63;;;27.29;28.54
65175;BME280;51761;42.126;24.752;2023-03-25T11:21:54;98915.72;;;27.68;28.23
65175;BME280;51761;42.126;24.752;2023-03-25T11:24:22;98905.41;;;27.86;26.49
65175;BME280;51761;42.126;24.752;2023-03-25T11:26:52;98908.66;;;28.23;27.86
65175;BME280;51761;42.126;24.752;2023-03-25T11:29:19;98896.25;;;28.28;27.17
65175;BME280;51761;42.126;24.752;2023-03-25T11:32:22;98900.09;;;27.90;26.37
65175;BME280;51761;42.126;24.752;2023-03-25T11:34:49;98906.28;;;27.94;26.68
65175;BME280;51761;42.126;24.752;2023-03-25T11:37:21;98892.19;;;28.03;27.67
65175;BME280;51761;42.126;24.752;2023-03-25T11:39:50;98875.81;;;28.52;29.18
65175;BME280;51761;42.126;24.752;2023-03-25T11:44:48;98885.91;;;28.74;26.82
65175;BME280;51761;42.126;24.752;2023-03-25T11:47:20;98874.00;;;28.70;26.87
65175;BME280;51761;42.126;24.752;2023-03-25T11:49:48;98869.00;;;28.63;25.75
65175;BME280;51761;42.126;24.752;2023-03-25T11:52:19;98863.38;;;28.85;26.25
65175;BME280;51761;42.126;24.752;2023-03-25T11:54:46;98852.75;;;28.65;25.66
65175;BME280;51761;42.126;24.752;2023-03-25T11:57:20;98836.28;;;27.97;26.06
65175;BME280;51761;42.126;24.752;2023-03-25T11:59:48;98824.59;;;27.95;26.13
65175;BME280;51761;42.126;24.752;2023-03-25T12:05:03;98842.41;;;28.42;28.25
65175;BME280;51761;42.126;24.752;2023-03-25T12:07:48;98832.50;;;28.50;28.57
65175;BME280;51761;42.126;24.752;2023-03-25T12:26:13;98807.38;;;28.71;26.60
65175;BME280;51761;42.126;24.752;2023-03-25T12:28:50;98812.41;;;28.50;26.66
65175;BME280;51761;42.126;24.752;2023-03-25T12:31:44;98805.78;;;28.14;26.79
65175;BME280;51761;42.126;24.752;2023-03-25T12:34:38;98803.63;;;28.07;27.45
65175;BME280;51761;42.126;24.752;2023-03-25T12:37:28;98801.88;;;28.25;27.37
65175;BME280;51761;42.126;24.752;2023-03-25T12:40:02;98770.03;;;28.43;27.11
65175;BME280;51761;42.126;24.752;2023-03-25T13:01:56;98721.81;;;26.52;29.91
65175;BME280;51761;42.126;24.752;2023-03-25T13:07:23;98734.53;;;26.77;29.04
65175;BME280;51761;42.126;24.752;2023-03-25T13:12:39;98742.72;;;26.34;29.63
65175;BME280;51761;42.126;24.752;2023-03-25T13:15:20;98740.63;;;25.83;30.72
65175;BME280;51761;42.126;24.752;2023-03-25T13:18:03;98710.13;;;25.41;31.00
65175;BME280;51761;42.126;24.752;2023-03-25T13:20:33;98734.09;;;25.38;31.80
65175;BME280;51761;42.126;24.752;2023-03-25T13:23:03;98730.34;;;25.43;31.58
65175;BME280;51761;42.126;24.752;2023-03-25T13:25:48;98715.38;;;25.37;31.25
65175;BME280;51761;42.126;24.752;2023-03-25T13:28:21;98719.88;;;25.14;31.77
65175;BME280;51761;42.126;24.752;2023-03-25T13:30:50;98715.91;;;25.04;32.26
65175;BME280;51761;42.126;24.752;2023-03-25T13:33:23;98723.00;;;24.98;32.21
65175;BME280;51761;42.126;24.752;2023-03-25T13:36:36;98719.72;;;24.75;31.51
65175;BME280;51761;42.126;24.752;2023-03-25T13:38:42;98714.97;;;24.78;31.61
65175;BME280;51761;42.126;24.752;2023-03-25T13:41:26;98713.13;;;24.80;31.82
65175;BME280;51761;42.126;24.752;2023-03-25T13:44:10;98715.38;;;24.69;32.13
65175;BME280;51761;42.126;24.752;2023-03-25T13:46:53;98684.44;;;24.54;31.20
65175;BME280;51761;42.126;24.752;2023-03-25T13:49:26;98704.56;;;24.80;31.36
65175;BME280;51761;42.126;24.752;2023-03-25T13:51:54;98697.22;;;24.66;30.94
65175;BME280;51761;42.126;24.752;2023-03-25T13:54:34;98696.09;;;24.56;31.36
65175;BME280;51761;42.126;24.752;2023-03-25T14:13:09;98677.16;;;24.17;32.18
65175;BME280;51761;42.126;24.752;2023-03-25T14:15:51;98663.31;;;24.02;32.71
65175;BME280;51761;42.126;24.752;2023-03-25T14:18:19;98661.63;;;24.12;32.25
65175;BME280;51761;42.126;24.752;2023-03-25T14:20:45;98665.97;;;24.19;32.05
65175;BME280;51761;42.126;24.752;2023-03-25T14:23:15;98666.63;;;24.06;32.81
65175;BME280;51761;42.126;24.752;2023-03-25T14:25:47;98670.00;;;24.05;32.87
65175;BME280;51761;42.126;24.752;2023-03-25T14:28:34;98657.22;;;24.11;33.07
65175;BME280;51761;42.126;24.752;2023-03-25T14:31:28;98660.94;;;24.06;32.74
65175;BME280;51761;42.126;24.752;2023-03-25T14:44:31;98635.25;;;23.88;32.41
65175;BME280;51761;42.126;24.752;2023-03-25T14:50:01;98633.94;;;23.89;32.77
65175;BME280;51761;42.126;24.752;2023-03-25T14:55:09;98620.81;;;23.75;33.16
65175;BME280;51761;42.126;24.752;2023-03-25T14:57:41;98616.16;;;23.77;33.50
65175;BME280;51761;42.126;24.752;2023-03-25T15:00:09;98640.22;;;23.82;33.87
65175;BME280;51761;42.126;24.752;2023-03-25T15:02:50;98643.31;;;23.84;33.74
65175;BME280;51761;42.126;24.752;2023-03-25T15:05:28;98634.31;;;23.74;34.79
65175;BME280;51761;42.126;24.752;2023-03-25T15:07:58;98638.28;;;23.42;34.90
65175;BME280;51761;42.126;24.752;2023-03-25T15:10:40;98642.91;;;23.21;35.70
65175;BME280;51761;42.126;24.752;2023-03-25T15:13:19;98646.88;;;23.12;36.59
65175;BME280;51761;42.126;24.752;2023-03-25T15:21:11;98653.72;;;23.28;38.42
65175;BME280;51761;42.126;24.752;2023-03-25T15:23:46;98651.22;;;23.19;38.74
65175;BME280;51761;42.126;24.752;2023-03-25T15:26:26;98654.28;;;23.21;38.75
65175;BME280;51761;42.126;24.752;2023-03-25T15:51:53;98686.34;;;22.92;39.74
65175;BME280;51761;42.126;24.752;2023-03-25T15:54:45;98687.66;;;22.91;39.55
65175;BME280;51761;42.126;24.752;2023-03-25T16:02:53;98701.75;;;22.72;40.53
65175;BME280;51761;42.126;24.752;2023-03-25T16:05:22;98715.50;;;22.68;40.75
65175;BME280;51761;42.126;24.752;2023-03-25T16:07:48;98716.34;;;22.52;41.24
65175;BME280;51761;42.126;24.752;2023-03-25T16:10:28;98722.59;;;22.51;41.16